Piney Grove, Arkansas
Current Conditions -  °F | °C
As of 1:56 PM on Sunday 25 Jan 2015 (Local Time) from KADF Reporting Station
Broken Clouds Broken Clouds  
Wind Chill: 62°   Ceiling: 6500
Heat Index: 62°   Visibility: 10mi
Dew Point: 35°   Wind: 16mph
Humidity: 36%   Direction: 260°W
Pressure: 29.81"   Gusts: NA
Location:  34.0586°N, 93.5318°W
Report Text: KADF 251956Z AUTO 26014KT 10SM FEW050 BKN065 17/02 A2981 RMK AO2 T01660016 BKN V SCT PK WND 25027/1943 SLP110
Loading
Personal Weather Stations






























Interactive Weather Map New forecast layout! Learn more

10-Day Weather Forecast

Advertisements
Track Severe Weather on mobile